Time;durP1;ratioP1;P1;durP2;ratioP2;P2;SDS_P1;SDS_P2;PMS_P1;PMS_P2;Temp;Humidity;BMP_temperature;BMP_pressure;BME280_temperature;BME280_humidity;BME280_pressure;Samples;Min_cycle;Max_cycle;Signal;HPM_P1;HPM_P2
2024/02/10 00:01:48;;;;;;;16.90;12.50;;;;;;;;;;5037746;28;20037;-71
2024/02/10 00:04:16;;;;;;;19.38;10.65;;;;;;;;;;5023354;28;20542;-71
2024/02/10 00:06:45;;;;;;;10.55;5.32;;;;;;;;;;5042279;28;20207;-70
2024/02/10 00:09:14;;;;;;;8.60;5.38;;;;;;;;;;5044103;28;20467;-69
2024/02/10 00:11:41;;;;;;;9.43;4.00;;;;;;;;;;5038903;28;20033;-71
2024/02/10 00:14:10;;;;;;;12.43;5.45;;;;;;;;;;5042896;28;20438;-70
2024/02/10 00:16:37;;;;;;;4.85;4.13;;;;;;;;;;5027005;28;20025;-71
2024/02/10 00:19:07;;;;;;;11.43;4.20;;;;;;;;;;5041428;28;20017;-63
2024/02/10 00:21:33;;;;;;;6.22;4.18;;;;;;;;;;5034639;28;20465;-63
2024/02/10 00:23:59;;;;;;;6.03;4.07;;;;;;;;;;5037556;28;20033;-63
2024/02/10 00:26:26;;;;;;;4.03;2.85;;;;;;;;;;5019136;28;20029;-64
2024/02/10 00:28:55;;;;;;;13.20;4.18;;;;;;;;;;5016972;28;20040;-64
2024/02/10 00:31:25;;;;;;;3.30;2.63;;;;;;;;;;5031440;28;20028;-63
2024/02/10 00:33:51;;;;;;;11.80;3.10;;;;;;;;;;5033541;28;20029;-63
2024/02/10 00:36:18;;;;;;;9.43;2.42;;;;;;;;;;5039754;28;20025;-63
2024/02/10 00:38:44;;;;;;;7.22;2.85;;;;;;;;;;5037624;28;20037;-64
2024/02/10 00:41:11;;;;;;;8.60;2.60;;;;;;;;;;5033404;28;20112;-70
2024/02/10 00:43:42;;;;;;;16.02;4.20;;;;;;;;;;5037755;28;20623;-70
2024/02/10 00:46:12;;;;;;;5.70;2.28;;;;;;;;;;5036768;28;20017;-70
2024/02/10 00:48:38;;;;;;;5.82;2.28;;;;;;;;;;5023481;28;20467;-70
2024/02/10 00:51:05;;;;;;;9.05;2.38;;;;;;;;;;5036673;28;20021;-69
2024/02/10 00:53:41;;;;;;;11.15;2.72;;;;;;;;;;5019262;28;20052;-70
2024/02/10 00:56:10;;;;;;;2.08;1.90;;;;;;;;;;5036998;28;20107;-63
2024/02/10 00:58:41;;;;;;;6.97;3.25;;;;;;;;;;5019458;28;20496;-64
2024/02/10 01:01:12;;;;;;;4.45;2.60;;;;;;;;;;5018268;28;20086;-63
2024/02/10 01:03:48;;;;;;;4.68;3.10;;;;;;;;;;5012612;28;20064;-64
2024/02/10 01:06:21;;;;;;;13.73;6.53;;;;;;;;;;5020541;28;20033;-64
2024/02/10 01:08:51;;;;;;;9.82;4.72;;;;;;;;;;5033768;28;20677;-64
2024/02/10 01:11:18;;;;;;;12.73;3.47;;;;;;;;;;5030729;28;20024;-66
2024/02/10 01:13:45;;;;;;;17.45;5.05;;;;;;;;;;5035462;28;20093;-63
2024/02/10 01:16:15;;;;;;;8.60;3.38;;;;;;;;;;5037567;28;20017;-63
2024/02/10 01:18:45;;;;;;;6.80;3.55;;;;;;;;;;5032608;28;20420;-63
2024/02/10 01:21:12;;;;;;;11.07;3.20;;;;;;;;;;5016114;28;20112;-63
2024/02/10 01:23:46;;;;;;;4.82;3.38;;;;;;;;;;5014183;28;20619;-63
2024/02/10 01:26:13;;;;;;;4.38;3.33;;;;;;;;;;5048881;28;20435;-64
2024/02/10 01:28:44;;;;;;;4.95;2.90;;;;;;;;;;5017792;28;20056;-64
2024/02/10 01:31:11;;;;;;;3.15;2.85;;;;;;;;;;5017512;28;20099;-63
2024/02/10 01:33:41;;;;;;;7.45;2.28;;;;;;;;;;5020914;28;20052;-63
2024/02/10 01:36:09;;;;;;;5.88;2.47;;;;;;;;;;5016209;28;20084;-64
2024/02/10 01:38:46;;;;;;;2.63;2.30;;;;;;;;;;5041019;28;20539;-64
2024/02/10 01:41:13;;;;;;;5.03;2.80;;;;;;;;;;5036129;28;20021;-63
2024/02/10 01:43:41;;;;;;;3.97;2.95;;;;;;;;;;5037158;28;20496;-63
2024/02/10 01:46:10;;;;;;;4.95;2.15;;;;;;;;;;5017093;28;20044;-63
2024/02/10 01:48:37;;;;;;;3.42;3.13;;;;;;;;;;5038066;28;20040;-63
2024/02/10 01:51:03;;;;;;;2.63;2.38;;;;;;;;;;5037150;28;20431;-63
2024/02/10 01:53:29;;;;;;;6.07;2.58;;;;;;;;;;5033970;28;20036;-63
2024/02/10 01:55:56;;;;;;;5.47;2.10;;;;;;;;;;5034237;28;20044;-63
2024/02/10 01:58:22;;;;;;;4.65;1.88;;;;;;;;;;5021238;28;20087;-63
2024/02/10 02:00:49;;;;;;;3.65;3.35;;;;;;;;;;5034582;28;20133;-64
2024/02/10 02:03:16;;;;;;;2.08;1.88;;;;;;;;;;5040470;28;20410;-63
2024/02/10 02:05:43;;;;;;;2.10;1.77;;;;;;;;;;5022041;28;20052;-63
2024/02/10 02:08:09;;;;;;;5.35;2.38;;;;;;;;;;5036962;28;20032;-63
2024/02/10 02:10:36;;;;;;;5.00;2.58;;;;;;;;;;5040327;28;20033;-64
2024/02/10 02:13:03;;;;;;;5.75;2.13;;;;;;;;;;5039803;28;20198;-63
2024/02/10 02:15:30;;;;;;;5.38;2.47;;;;;;;;;;5034501;28;20483;-63
2024/02/10 02:17:59;;;;;;;2.05;1.65;;;;;;;;;;5021007;28;20057;-63
2024/02/10 02:20:28;;;;;;;4.43;2.38;;;;;;;;;;5043844;28;20381;-63
2024/02/10 02:22:54;;;;;;;2.85;2.28;;;;;;;;;;5020276;28;20344;-63
2024/02/10 02:25:21;;;;;;;3.90;2.28;;;;;;;;;;5042041;28;20052;-63
2024/02/10 02:27:47;;;;;;;6.80;2.85;;;;;;;;;;5039786;28;20044;-63
2024/02/10 02:30:17;;;;;;;2.45;2.13;;;;;;;;;;5041276;28;20037;-63
2024/02/10 02:32:44;;;;;;;1.50;1.40;;;;;;;;;;5021550;28;20037;-63
2024/02/10 02:35:10;;;;;;;1.90;1.80;;;;;;;;;;5020036;28;20029;-63
2024/02/10 02:37:46;;;;;;;5.72;2.08;;;;;;;;;;5041281;28;20512;-70
2024/02/10 02:40:13;;;;;;;8.63;2.30;;;;;;;;;;5043570;28;20079;-70
2024/02/10 02:42:40;;;;;;;2.40;1.58;;;;;;;;;;5042500;28;20120;-70
2024/02/10 02:45:07;;;;;;;4.03;2.08;;;;;;;;;;5046226;28;20036;-70
2024/02/10 02:47:36;;;;;;;3.90;2.17;;;;;;;;;;5022338;28;20025;-70
2024/02/10 02:50:02;;;;;;;5.65;2.20;;;;;;;;;;5039920;28;20029;-70
2024/02/10 02:52:30;;;;;;;2.42;2.20;;;;;;;;;;5042707;28;20029;-70
2024/02/10 02:54:59;;;;;;;1.55;1.45;;;;;;;;;;5042094;28;20044;-70
2024/02/10 02:57:26;;;;;;;3.78;2.42;;;;;;;;;;5025204;28;20040;-70
2024/02/10 02:59:53;;;;;;;6.15;2.00;;;;;;;;;;5044098;28;20128;-69
2024/02/10 03:02:19;;;;;;;5.65;2.25;;;;;;;;;;5020178;28;20025;-70
2024/02/10 03:04:46;;;;;;;2.30;2.10;;;;;;;;;;5040478;28;20116;-70
2024/02/10 03:07:14;;;;;;;4.53;2.28;;;;;;;;;;5044339;28;20580;-70
2024/02/10 03:09:44;;;;;;;3.13;2.33;;;;;;;;;;5041555;28;20471;-70
2024/02/10 03:12:14;;;;;;;5.82;2.35;;;;;;;;;;5028444;28;20535;-70
2024/02/10 03:14:40;;;;;;;6.70;2.88;;;;;;;;;;5022581;28;20066;-69
2024/02/10 03:17:07;;;;;;;2.75;2.17;;;;;;;;;;5027518;28;20053;-70
2024/02/10 03:19:37;;;;;;;5.78;3.08;;;;;;;;;;5042215;28;20063;-70
2024/02/10 03:22:04;;;;;;;7.97;2.63;;;;;;;;;;5044972;28;20049;-70
2024/02/10 03:24:34;;;;;;;2.63;2.00;;;;;;;;;;5026142;28;20029;-70
2024/02/10 03:27:03;;;;;;;4.68;2.00;;;;;;;;;;5019894;28;20033;-70
2024/02/10 03:29:29;;;;;;;5.18;2.30;;;;;;;;;;5044876;28;20110;-70
2024/02/10 03:31:55;;;;;;;4.30;2.22;;;;;;;;;;5042054;28;20100;-70
2024/02/10 03:34:22;;;;;;;6.78;1.92;;;;;;;;;;5037897;28;20040;-70
2024/02/10 03:36:48;;;;;;;1.98;1.48;;;;;;;;;;5041763;28;20025;-70
2024/02/10 03:39:15;;;;;;;2.50;2.17;;;;;;;;;;5039549;28;20020;-70
2024/02/10 03:41:41;;;;;;;5.35;1.67;;;;;;;;;;5040585;28;20033;-70
2024/02/10 03:44:07;;;;;;;4.05;1.98;;;;;;;;;;5040635;28;20033;-70
2024/02/10 03:46:33;;;;;;;2.15;1.95;;;;;;;;;;5040366;28;20025;-69
2024/02/10 03:49:00;;;;;;;3.90;2.15;;;;;;;;;;5021924;28;20144;-70
2024/02/10 03:51:26;;;;;;;3.03;1.98;;;;;;;;;;5041076;28;20032;-70
2024/02/10 03:53:53;;;;;;;2.22;1.85;;;;;;;;;;5040531;28;20060;-70
2024/02/10 03:56:21;;;;;;;2.75;2.00;;;;;;;;;;5039193;28;20022;-71
2024/02/10 03:58:48;;;;;;;2.55;1.92;;;;;;;;;;5018740;28;20026;-70
2024/02/10 04:01:14;;;;;;;11.23;2.78;;;;;;;;;;5017064;28;20045;-71
2024/02/10 04:03:42;;;;;;;8.75;2.45;;;;;;;;;;5044954;28;20592;-70
2024/02/10 04:06:11;;;;;;;5.85;2.17;;;;;;;;;;5021346;28;20029;-70
2024/02/10 04:08:38;;;;;;;5.80;2.05;;;;;;;;;;5038587;28;20714;-70
2024/02/10 04:11:08;;;;;;;7.28;2.40;;;;;;;;;;5017909;28;20060;-71
2024/02/10 04:13:35;;;;;;;9.50;2.30;;;;;;;;;;5044766;28;20451;-70
2024/02/10 04:16:01;;;;;;;6.70;2.25;;;;;;;;;;5043256;28;20032;-70
2024/02/10 04:18:28;;;;;;;2.83;1.95;;;;;;;;;;5041176;28;20029;-71
2024/02/10 04:20:55;;;;;;;4.35;2.53;;;;;;;;;;5022308;28;20025;-70
2024/02/10 04:23:32;;;;;;;6.60;2.30;;;;;;;;;;5023813;28;20496;-71
2024/02/10 04:25:58;;;;;;;3.78;3.25;;;;;;;;;;5024129;28;20025;-70
2024/02/10 04:28:25;;;;;;;3.85;2.60;;;;;;;;;;5043861;28;20049;-71
2024/02/10 04:30:52;;;;;;;2.72;2.53;;;;;;;;;;5040795;28;20025;-70
2024/02/10 04:33:21;;;;;;;4.70;3.22;;;;;;;;;;5019846;28;20430;-70
2024/02/10 04:35:48;;;;;;;4.88;2.90;;;;;;;;;;5024942;28;20052;-70
2024/02/10 04:38:14;;;;;;;10.43;2.30;;;;;;;;;;5041374;28;20059;-70
2024/02/10 04:40:40;;;;;;;4.03;2.60;;;;;;;;;;5035632;28;20064;-70
2024/02/10 04:43:07;;;;;;;9.93;2.55;;;;;;;;;;5026249;28;20031;-70
2024/02/10 04:45:36;;;;;;;5.35;2.97;;;;;;;;;;5042402;28;20104;-71
2024/02/10 04:48:03;;;;;;;13.00;3.70;;;;;;;;;;5039326;28;20420;-70
2024/02/10 04:50:30;;;;;;;2.83;2.58;;;;;;;;;;5016324;28;20148;-70
2024/02/10 04:52:56;;;;;;;2.85;2.35;;;;;;;;;;5040843;28;20039;-70
2024/02/10 04:55:23;;;;;;;9.23;3.95;;;;;;;;;;5044759;28;20095;-70
2024/02/10 04:57:50;;;;;;;3.72;2.58;;;;;;;;;;5039307;28;20424;-69
2024/02/10 05:00:17;;;;;;;8.98;3.70;;;;;;;;;;5026042;28;20453;-70
2024/02/10 05:02:44;;;;;;;3.30;2.88;;;;;;;;;;5026641;28;20123;-70
2024/02/10 05:05:11;;;;;;;3.05;2.75;;;;;;;;;;5038011;28;20065;-70
2024/02/10 05:07:43;;;;;;;4.70;3.97;;;;;;;;;;5044748;28;20031;-71
2024/02/10 05:10:18;;;;;;;4.80;3.75;;;;;;;;;;5044132;28;20455;-70
2024/02/10 05:12:46;;;;;;;9.80;3.42;;;;;;;;;;5022937;28;20036;-71
2024/02/10 05:15:18;;;;;;;6.82;3.13;;;;;;;;;;5045909;28;20032;-70
2024/02/10 05:17:48;;;;;;;17.77;4.03;;;;;;;;;;5033986;28;20043;-70
2024/02/10 05:20:24;;;;;;;14.65;2.85;;;;;;;;;;5040180;28;20785;-70
2024/02/10 05:22:50;;;;;;;;;;;;;;;;;;5042735;28;20048;-70
2024/02/10 05:25:18;;;;;;;4.65;3.10;;;;;;;;;;5023159;28;20010;-70
2024/02/10 05:27:45;;;;;;;7.38;3.10;;;;;;;;;;5040334;28;20543;-70
2024/02/10 05:30:21;;;;;;;8.60;3.38;;;;;;;;;;5014278;28;20036;-70
2024/02/10 05:32:47;;;;;;;;;;;;;;;;;;5039306;28;20104;-70
2024/02/10 05:35:20;;;;;;;5.38;2.85;;;;;;;;;;5043921;28;19962;-70
2024/02/10 05:37:50;;;;;;;10.70;3.22;;;;;;;;;;5040442;28;20040;-70
2024/02/10 05:40:17;;;;;;;11.48;3.25;;;;;;;;;;5040421;28;20365;-70
2024/02/10 05:42:47;;;;;;;4.88;3.47;;;;;;;;;;5042158;28;20051;-70
2024/02/10 05:45:16;;;;;;;11.63;3.85;;;;;;;;;;5045107;28;20079;-70
2024/02/10 05:47:44;;;;;;;9.00;4.13;;;;;;;;;;5022605;28;20056;-70
2024/02/10 05:50:15;;;;;;;4.70;4.03;;;;;;;;;;5041352;28;21273;-70
2024/02/10 05:52:45;;;;;;;7.70;3.15;;;;;;;;;;5048759;28;20025;-70
2024/02/10 05:55:12;;;;;;;4.95;3.30;;;;;;;;;;5023474;28;20029;-70
2024/02/10 05:57:39;;;;;;;3.00;2.75;;;;;;;;;;5039050;28;20033;-70
2024/02/10 06:00:12;;;;;;;7.90;2.90;;;;;;;;;;5039024;28;20305;-70
2024/02/10 06:02:39;;;;;;;4.78;3.08;;;;;;;;;;5026579;28;20036;-70
2024/02/10 06:05:08;;;;;;;4.70;3.08;;;;;;;;;;5042360;28;20060;-71
2024/02/10 06:07:35;;;;;;;4.57;3.00;;;;;;;;;;5032879;28;20091;-70
2024/02/10 06:10:14;;;;;;;4.63;2.75;;;;;;;;;;5041295;28;20028;-71
2024/02/10 06:12:43;;;;;;;11.13;3.15;;;;;;;;;;5040920;28;20032;-70
2024/02/10 06:15:10;;;;;;;2.90;2.60;;;;;;;;;;5026201;28;20480;-70
2024/02/10 06:17:44;;;;;;;15.10;3.85;;;;;;;;;;5039446;28;20033;-70
2024/02/10 06:20:22;;;;;;;4.05;3.20;;;;;;;;;;5048384;28;20030;-70
2024/02/10 06:22:50;;;;;;;8.75;3.13;;;;;;;;;;5034739;28;20029;-70
2024/02/10 06:25:22;;;;;;;6.00;3.67;;;;;;;;;;5039077;28;20056;-69
2024/02/10 06:27:54;;;;;;;8.63;3.50;;;;;;;;;;5024374;28;20040;-69
2024/02/10 06:30:21;;;;;;;16.92;3.25;;;;;;;;;;5022072;28;20083;-70
2024/02/10 06:32:48;;;;;;;12.20;2.78;;;;;;;;;;5042965;28;20034;-70
2024/02/10 06:35:15;;;;;;;4.00;2.72;;;;;;;;;;5025915;28;20111;-70
2024/02/10 06:37:51;;;;;;;5.95;3.08;;;;;;;;;;5033026;28;20091;-70
2024/02/10 06:40:18;;;;;;;13.10;2.97;;;;;;;;;;5033680;28;20021;-70
2024/02/10 06:42:53;;;;;;;2.58;2.10;;;;;;;;;;5032346;28;20519;-70
2024/02/10 06:45:24;;;;;;;2.33;2.13;;;;;;;;;;5038042;28;21298;-70
2024/02/10 06:47:50;;;;;;;5.57;2.70;;;;;;;;;;5039157;28;20424;-70
2024/02/10 06:50:29;;;;;;;10.10;3.30;;;;;;;;;;5041748;28;20522;-70
2024/02/10 06:52:59;;;;;;;6.65;2.75;;;;;;;;;;5040037;28;20029;-70
2024/02/10 06:55:26;;;;;;;3.97;1.95;;;;;;;;;;5046088;28;20036;-70
2024/02/10 06:57:55;;;;;;;6.47;2.72;;;;;;;;;;5048318;28;20021;-69
2024/02/10 07:00:22;;;;;;;7.80;2.60;;;;;;;;;;5042575;28;20025;-70
2024/02/10 07:02:48;;;;;;;3.78;2.40;;;;;;;;;;5043120;28;20029;-70
2024/02/10 07:05:15;;;;;;;6.15;2.45;;;;;;;;;;5046004;28;20029;-70
2024/02/10 07:07:42;;;;;;;2.45;2.25;;;;;;;;;;5045508;28;20638;-70
2024/02/10 07:10:14;;;;;;;3.08;2.20;;;;;;;;;;5043005;28;20029;-70
2024/02/10 07:12:42;;;;;;;3.28;2.83;;;;;;;;;;5042998;28;20107;-70
2024/02/10 07:15:17;;;;;;;13.25;3.25;;;;;;;;;;5038296;28;20472;-70
2024/02/10 07:17:46;;;;;;;3.22;2.38;;;;;;;;;;5035517;28;20481;-70
2024/02/10 07:20:20;;;;;;;3.45;3.05;;;;;;;;;;5022723;28;20144;-70
2024/02/10 07:22:49;;;;;;;4.53;2.25;;;;;;;;;;5047968;28;20112;-69
2024/02/10 07:25:18;;;;;;;7.53;2.97;;;;;;;;;;5043600;28;20032;-70
2024/02/10 07:27:46;;;;;;;10.40;2.13;;;;;;;;;;5046955;28;20033;-69
2024/02/10 07:30:14;;;;;;;4.72;2.55;;;;;;;;;;5044723;28;20029;-71
2024/02/10 07:32:40;;;;;;;6.15;2.67;;;;;;;;;;5042952;28;20048;-70
2024/02/10 07:35:06;;;;;;;2.95;2.65;;;;;;;;;;5042769;28;20029;-70
2024/02/10 07:37:33;;;;;;;6.25;3.40;;;;;;;;;;5045763;28;20492;-70
2024/02/10 07:39:59;;;;;;;13.27;2.90;;;;;;;;;;5043175;28;20543;-70
2024/02/10 07:42:27;;;;;;;4.00;2.50;;;;;;;;;;5022456;28;20112;-70
2024/02/10 07:44:55;;;;;;;2.63;2.42;;;;;;;;;;5047931;28;20128;-71
2024/02/10 07:47:22;;;;;;;3.95;1.98;;;;;;;;;;5025938;28;20389;-70
2024/02/10 07:49:50;;;;;;;12.23;2.78;;;;;;;;;;5045790;28;20079;-71
2024/02/10 07:52:18;;;;;;;2.70;2.50;;;;;;;;;;5041545;28;20032;-71
2024/02/10 07:54:47;;;;;;;2.58;2.30;;;;;;;;;;5041277;28;20021;-70
2024/02/10 07:57:19;;;;;;;5.15;2.10;;;;;;;;;;5040988;28;20040;-70
2024/02/10 07:59:55;;;;;;;5.20;2.25;;;;;;;;;;5026667;28;20504;-70
2024/02/10 08:02:23;;;;;;;9.10;2.88;;;;;;;;;;5042647;28;20029;-71
2024/02/10 08:04:51;;;;;;;4.72;3.50;;;;;;;;;;5043184;28;20017;-70
2024/02/10 08:07:27;;;;;;;8.40;2.58;;;;;;;;;;5023514;28;20029;-70
2024/02/10 08:09:54;;;;;;;3.63;2.50;;;;;;;;;;5041051;28;20087;-70
2024/02/10 08:12:24;;;;;;;6.63;2.72;;;;;;;;;;5031681;28;20500;-71
2024/02/10 08:14:51;;;;;;;9.23;2.55;;;;;;;;;;5039168;28;20017;-70
2024/02/10 08:17:19;;;;;;;3.58;2.70;;;;;;;;;;5042213;28;20024;-71
2024/02/10 08:19:45;;;;;;;2.88;2.15;;;;;;;;;;5021665;28;20032;-70
2024/02/10 08:22:13;;;;;;;8.32;3.40;;;;;;;;;;5027534;28;20339;-71
2024/02/10 08:24:40;;;;;;;2.85;1.92;;;;;;;;;;5046164;28;20487;-71
2024/02/10 08:27:15;;;;;;;16.42;3.22;;;;;;;;;;5025727;28;20061;-71
2024/02/10 08:29:42;;;;;;;16.35;2.90;;;;;;;;;;5040501;28;20060;-70
2024/02/10 08:32:13;;;;;;;5.93;3.13;;;;;;;;;;5039494;28;20434;-64
2024/02/10 08:34:42;;;;;;;5.97;2.83;;;;;;;;;;5044763;28;20044;-64
2024/02/10 08:37:09;;;;;;;9.50;4.28;;;;;;;;;;5040053;28;20029;-64
2024/02/10 08:39:37;;;;;;;5.78;2.88;;;;;;;;;;5037263;28;20088;-64
2024/02/10 08:42:05;;;;;;;4.60;2.10;;;;;;;;;;5044589;28;20036;-65
2024/02/10 08:44:32;;;;;;;6.43;2.40;;;;;;;;;;5043414;28;20492;-63
2024/02/10 08:47:05;;;;;;;12.85;3.35;;;;;;;;;;5024392;28;20033;-64
2024/02/10 08:49:35;;;;;;;6.25;3.13;;;;;;;;;;5043943;28;20060;-64
2024/02/10 08:52:15;;;;;;;6.90;4.25;;;;;;;;;;5036691;28;20053;-64
2024/02/10 08:54:44;;;;;;;17.25;9.57;;;;;;;;;;5043336;28;20028;-64
2024/02/10 08:57:10;;;;;;;13.52;6.75;;;;;;;;;;5039156;28;20048;-64
2024/02/10 08:59:41;;;;;;;20.13;12.25;;;;;;;;;;5037073;28;20515;-64
2024/02/10 09:02:08;;;;;;;40.10;14.63;;;;;;;;;;5039684;28;20052;-64
2024/02/10 09:04:34;;;;;;;29.83;9.50;;;;;;;;;;5015180;28;20637;-70
2024/02/10 09:07:01;;;;;;;3.78;3.30;;;;;;;;;;5044833;28;20400;-71
2024/02/10 09:09:28;;;;;;;17.73;8.65;;;;;;;;;;5020412;28;20074;-71
2024/02/10 09:11:54;;;;;;;8.00;3.60;;;;;;;;;;5016786;28;20025;-70
2024/02/10 09:14:20;;;;;;;7.65;4.30;;;;;;;;;;5037440;28;20025;-71
2024/02/10 09:16:47;;;;;;;10.77;3.47;;;;;;;;;;5017883;28;20044;-70
2024/02/10 09:19:17;;;;;;;4.90;2.80;;;;;;;;;;5021384;28;20439;-71
2024/02/10 09:21:57;;;;;;;8.48;3.47;;;;;;;;;;5039217;28;20058;-70
2024/02/10 09:24:25;;;;;;;4.47;3.65;;;;;;;;;;5034790;28;20017;-71
2024/02/10 09:26:58;;;;;;;7.82;3.67;;;;;;;;;;5019877;28;20091;-71
2024/02/10 09:29:24;;;;;;;9.40;3.72;;;;;;;;;;5044741;28;20722;-71
2024/02/10 09:31:56;;;;;;;9.23;4.03;;;;;;;;;;5037696;28;20036;-70
2024/02/10 09:34:23;;;;;;;4.20;3.25;;;;;;;;;;5034564;28;20048;-70
2024/02/10 09:36:49;;;;;;;8.00;4.55;;;;;;;;;;5027617;28;20021;-70
2024/02/10 09:39:18;;;;;;;6.00;2.83;;;;;;;;;;5025345;28;20479;-71
2024/02/10 09:41:45;;;;;;;10.50;2.88;;;;;;;;;;5036948;28;20147;-71
2024/02/10 09:44:11;;;;;;;7.10;5.30;;;;;;;;;;5039550;28;20052;-71
2024/02/10 09:46:38;;;;;;;6.47;4.68;;;;;;;;;;5041638;28;20483;-70
2024/02/10 09:49:07;;;;;;;26.88;7.45;;;;;;;;;;5020259;28;20026;-70
2024/02/10 09:51:43;;;;;;;7.00;3.25;;;;;;;;;;5040972;28;20037;-71
2024/02/10 09:54:15;;;;;;;17.67;5.40;;;;;;;;;;5042791;28;20086;-71
2024/02/10 09:56:43;;;;;;;4.75;3.70;;;;;;;;;;5023722;28;20040;-70
2024/02/10 09:59:12;;;;;;;20.33;6.63;;;;;;;;;;5041209;28;20444;-70
2024/02/10 10:01:39;;;;;;;6.35;3.00;;;;;;;;;;5020431;28;20021;-70
2024/02/10 10:04:11;;;;;;;7.18;3.75;;;;;;;;;;5039917;28;20025;-70
2024/02/10 10:06:43;;;;;;;7.30;3.40;;;;;;;;;;5019894;28;20029;-70
2024/02/10 10:09:14;;;;;;;9.68;4.35;;;;;;;;;;5035939;28;20028;-70
2024/02/10 10:11:41;;;;;;;16.00;3.28;;;;;;;;;;5037335;28;20025;-70
2024/02/10 10:14:08;;;;;;;8.60;2.75;;;;;;;;;;5037355;28;20057;-71
2024/02/10 10:16:34;;;;;;;4.45;2.72;;;;;;;;;;5034838;28;20033;-71
2024/02/10 10:19:00;;;;;;;7.00;2.88;;;;;;;;;;5040979;28;20029;-71
2024/02/10 10:21:28;;;;;;;15.75;2.90;;;;;;;;;;5025557;28;20071;-71
2024/02/10 10:23:54;;;;;;;7.15;3.85;;;;;;;;;;5025057;28;20021;-71
2024/02/10 10:26:21;;;;;;;10.18;3.05;;;;;;;;;;5043033;28;20199;-71
2024/02/10 10:28:49;;;;;;;14.55;2.83;;;;;;;;;;5042039;28;20045;-71
2024/02/10 10:31:19;;;;;;;4.80;2.50;;;;;;;;;;5039927;28;20045;-71
2024/02/10 10:33:49;;;;;;;12.45;2.75;;;;;;;;;;5041662;28;20036;-71
2024/02/10 10:36:16;;;;;;;3.10;2.22;;;;;;;;;;5044874;28;20307;-70
2024/02/10 10:38:46;;;;;;;6.45;3.45;;;;;;;;;;5038981;28;20025;-71
2024/02/10 10:41:18;;;;;;;7.60;2.92;;;;;;;;;;5029476;28;20021;-71
2024/02/10 10:43:46;;;;;;;7.43;2.63;;;;;;;;;;5039800;28;20017;-72
2024/02/10 10:46:16;;;;;;;6.65;3.22;;;;;;;;;;5033864;28;20025;-71
2024/02/10 10:48:44;;;;;;;16.00;5.85;;;;;;;;;;5040309;28;20029;-72
2024/02/10 10:51:11;;;;;;;14.35;3.42;;;;;;;;;;5039171;28;20079;-71
2024/02/10 10:53:40;;;;;;;9.48;3.72;;;;;;;;;;5043233;28;20033;-71
2024/02/10 10:56:08;;;;;;;5.82;2.40;;;;;;;;;;5030009;28;20027;-71
2024/02/10 10:58:38;;;;;;;10.73;3.65;;;;;;;;;;5040239;28;20072;-71
2024/02/10 11:01:05;;;;;;;7.68;2.95;;;;;;;;;;5027484;28;20017;-71
2024/02/10 11:03:32;;;;;;;9.30;2.78;;;;;;;;;;5036995;28;20045;-71
2024/02/10 11:05:58;;;;;;;8.32;2.58;;;;;;;;;;5042885;28;20536;-71
2024/02/10 11:08:25;;;;;;;7.68;2.90;;;;;;;;;;5042134;28;20033;-71
2024/02/10 11:10:57;;;;;;;7.45;2.33;;;;;;;;;;5023902;28;20116;-71
2024/02/10 11:13:26;;;;;;;5.18;2.47;;;;;;;;;;5022893;28;20067;-71
2024/02/10 11:16:14;;;;;;;4.15;1.70;;;;;;;;;;5022404;28;20094;-71
2024/02/10 11:18:45;;;;;;;8.57;3.08;;;;;;;;;;5041485;28;20411;-71
2024/02/10 11:21:18;;;;;;;10.23;2.70;;;;;;;;;;5026051;28;20100;-71
2024/02/10 11:23:56;;;;;;;7.30;2.60;;;;;;;;;;5020294;28;20024;-72
2024/02/10 11:26:24;;;;;;;15.20;3.13;;;;;;;;;;5047432;28;20197;-71
2024/02/10 11:28:58;;;;;;;7.30;2.78;;;;;;;;;;5023172;28;20053;-71
2024/02/10 11:31:25;;;;;;;16.20;2.97;;;;;;;;;;5045583;28;20078;-71
2024/02/10 11:33:51;;;;;;;3.22;2.20;;;;;;;;;;5043907;28;20110;-70
2024/02/10 11:36:19;;;;;;;5.20;2.50;;;;;;;;;;5040101;28;20040;-71
2024/02/10 11:38:46;;;;;;;7.57;2.35;;;;;;;;;;5043157;28;20032;-71
2024/02/10 11:41:13;;;;;;;2.50;2.30;;;;;;;;;;5043585;28;20396;-71
2024/02/10 11:43:40;;;;;;;10.43;3.45;;;;;;;;;;5042514;28;20245;-71
2024/02/10 11:46:08;;;;;;;4.68;2.50;;;;;;;;;;5023601;28;20618;-71
2024/02/10 11:48:34;;;;;;;6.72;2.55;;;;;;;;;;5041445;28;20411;-70
2024/02/10 11:51:01;;;;;;;8.80;2.63;;;;;;;;;;5039789;28;20025;-71
2024/02/10 11:53:28;;;;;;;14.95;3.15;;;;;;;;;;5042553;28;20655;-71
2024/02/10 11:55:54;;;;;;;9.23;3.40;;;;;;;;;;5038548;28;20071;-71
2024/02/10 11:58:23;;;;;;;13.73;3.10;;;;;;;;;;5043551;28;20368;-71
2024/02/10 12:00:50;;;;;;;6.43;2.80;;;;;;;;;;5041593;28;20510;-71
2024/02/10 12:03:18;;;;;;;5.95;2.80;;;;;;;;;;5019952;28;20029;-70
2024/02/10 12:05:46;;;;;;;10.60;3.17;;;;;;;;;;5046345;28;20617;-70
2024/02/10 12:08:12;;;;;;;5.70;2.67;;;;;;;;;;5042699;28;20102;-71
2024/02/10 12:10:39;;;;;;;8.27;2.95;;;;;;;;;;5041132;28;20028;-71
2024/02/10 12:13:10;;;;;;;10.07;2.75;;;;;;;;;;5040686;28;20029;-71
2024/02/10 12:15:39;;;;;;;6.47;2.60;;;;;;;;;;5039783;28;20446;-70
2024/02/10 12:18:09;;;;;;;7.35;2.90;;;;;;;;;;5045590;28;20033;-70
2024/02/10 12:20:37;;;;;;;7.65;3.08;;;;;;;;;;5042929;28;20746;-71
2024/02/10 12:23:03;;;;;;;7.90;2.70;;;;;;;;;;5041595;28;20024;-72
2024/02/10 12:25:29;;;;;;;11.15;3.45;;;;;;;;;;5044892;28;20025;-71
2024/02/10 12:27:57;;;;;;;7.65;3.10;;;;;;;;;;5023019;28;20128;-72
2024/02/10 12:30:23;;;;;;;5.93;3.47;;;;;;;;;;5043983;28;20036;-71
2024/02/10 12:32:52;;;;;;;8.20;3.13;;;;;;;;;;5023173;28;20025;-71
2024/02/10 12:35:20;;;;;;;9.50;3.25;;;;;;;;;;5021519;28;20148;-71
2024/02/10 12:37:47;;;;;;;10.73;3.38;;;;;;;;;;5042071;28;20033;-70
2024/02/10 12:40:21;;;;;;;7.68;3.53;;;;;;;;;;5020442;28;20029;-70
2024/02/10 12:42:47;;;;;;;8.50;3.50;;;;;;;;;;5041685;28;20041;-72
2024/02/10 12:45:14;;;;;;;6.32;3.20;;;;;;;;;;5024828;28;20041;-72
2024/02/10 12:47:44;;;;;;;8.02;2.70;;;;;;;;;;5038116;28;20444;-72
2024/02/10 12:50:11;;;;;;;13.65;3.50;;;;;;;;;;5035220;28;20083;-72
2024/02/10 12:52:38;;;;;;;5.95;2.67;;;;;;;;;;5024499;28;20036;-73
2024/02/10 12:55:09;;;;;;;5.82;2.95;;;;;;;;;;5036756;28;20049;-69
2024/02/10 12:57:39;;;;;;;8.05;2.75;;;;;;;;;;5040013;28;20017;-70
2024/02/10 13:00:24;;;;;;;11.27;2.97;;;;;;;;;;5037179;28;20021;-69
2024/02/10 13:02:50;;;;;;;;;;;;;;;;;;5041502;28;20028;-70
2024/02/10 13:05:18;;;;;;;11.20;3.60;;;;;;;;;;5038762;28;19912;-70
2024/02/10 13:07:45;;;;;;;6.28;2.83;;;;;;;;;;5040734;28;20107;-69
2024/02/10 13:10:21;;;;;;;8.30;3.13;;;;;;;;;;5039502;28;20082;-69
2024/02/10 13:12:51;;;;;;;13.90;3.33;;;;;;;;;;5039801;28;20068;-69
2024/02/10 13:15:18;;;;;;;6.10;3.20;;;;;;;;;;5018429;28;20057;-69
2024/02/10 13:17:45;;;;;;;6.80;2.88;;;;;;;;;;5021730;28;20029;-69
2024/02/10 13:20:12;;;;;;;9.10;2.95;;;;;;;;;;5023873;28;20028;-69
2024/02/10 13:22:40;;;;;;;10.88;3.80;;;;;;;;;;5038639;28;20017;-69
2024/02/10 13:25:08;;;;;;;11.02;3.22;;;;;;;;;;5039086;28;20605;-69
2024/02/10 13:27:35;;;;;;;12.30;3.10;;;;;;;;;;5039323;28;20045;-70
2024/02/10 13:30:01;;;;;;;7.50;3.78;;;;;;;;;;5034559;28;20045;-69
2024/02/10 13:32:27;;;;;;;10.25;3.83;;;;;;;;;;5018456;28;20037;-69
2024/02/10 13:34:55;;;;;;;10.35;3.85;;;;;;;;;;5039226;28;20358;-69
2024/02/10 14:05:13;;;;;;;8.95;2.83;;;;;;;;;;5043466;28;20029;-68
2024/02/10 14:12:45;;;;;;;11.25;3.25;;;;;;;;;;5048382;28;20032;-69
2024/02/10 14:15:24;;;;;;;7.32;2.78;;;;;;;;;;5041170;28;20021;-69
2024/02/10 14:17:51;;;;;;;9.38;3.00;;;;;;;;;;5026454;28;20093;-68
2024/02/10 14:20:24;;;;;;;7.28;3.30;;;;;;;;;;5026843;28;20035;-68
2024/02/10 14:22:53;;;;;;;5.82;3.40;;;;;;;;;;5029996;28;20111;-69
2024/02/10 14:25:29;;;;;;;13.38;2.70;;;;;;;;;;5042183;28;20539;-68
2024/02/10 14:27:59;;;;;;;8.45;4.13;;;;;;;;;;5028171;28;20116;-68
2024/02/10 14:30:37;;;;;;;9.23;3.70;;;;;;;;;;5044358;28;20033;-68
2024/02/10 14:33:09;;;;;;;7.13;2.95;;;;;;;;;;5041562;28;20029;-67
2024/02/10 14:35:48;;;;;;;11.40;3.28;;;;;;;;;;5035184;28;20787;-68
2024/02/10 14:38:27;;;;;;;4.07;2.65;;;;;;;;;;5025218;28;20302;-68
2024/02/10 14:40:54;;;;;;;11.02;3.05;;;;;;;;;;5029727;28;20021;-69
2024/02/10 14:43:21;;;;;;;18.15;5.90;;;;;;;;;;5024149;28;20139;-68
2024/02/10 14:45:47;;;;;;;18.02;7.68;;;;;;;;;;5047401;28;20047;-68
2024/02/10 14:48:17;;;;;;;5.55;3.15;;;;;;;;;;5044995;28;20033;-69
2024/02/10 14:50:49;;;;;;;10.95;4.18;;;;;;;;;;5021049;28;20040;-68
2024/02/10 14:53:15;;;;;;;14.45;3.55;;;;;;;;;;5023564;28;20477;-68
2024/02/10 14:55:42;;;;;;;11.38;4.18;;;;;;;;;;5044108;28;20037;-68
2024/02/10 14:58:08;;;;;;;8.05;3.70;;;;;;;;;;5044116;28;20087;-68
2024/02/10 15:00:35;;;;;;;14.75;3.58;;;;;;;;;;5046089;28;20029;-68
2024/02/10 15:03:01;;;;;;;8.73;2.95;;;;;;;;;;5023458;28;20048;-68
2024/02/10 15:05:28;;;;;;;9.82;3.60;;;;;;;;;;5022348;28;20033;-68
2024/02/10 15:07:59;;;;;;;11.27;3.10;;;;;;;;;;5038368;28;20028;-68
2024/02/10 15:10:27;;;;;;;8.70;3.45;;;;;;;;;;5037737;28;20124;-68
2024/02/10 15:12:53;;;;;;;6.15;3.10;;;;;;;;;;5021643;28;20060;-68
2024/02/10 15:15:20;;;;;;;14.82;3.35;;;;;;;;;;5041959;28;20033;-68
2024/02/10 15:17:47;;;;;;;6.60;3.63;;;;;;;;;;5020656;28;20547;-67
2024/02/10 15:20:13;;;;;;;20.40;4.65;;;;;;;;;;5021937;28;20519;-67
2024/02/10 15:22:40;;;;;;;8.50;3.85;;;;;;;;;;5044068;28;20060;-67